sensor_id;sensor_type;location;lat;lon;timestamp;P1;durP1;ratioP1;P2;durP2;ratioP2
78887;SDS011;68276;49.326;8.690;2023-02-28T00:00:29;3.67;;;1.48;;
78887;SDS011;68276;49.326;8.690;2023-02-28T00:02:55;4.13;;;1.40;;
78887;SDS011;68276;49.326;8.690;2023-02-28T00:05:21;4.67;;;1.20;;
78887;SDS011;68276;49.326;8.690;2023-02-28T00:07:49;3.80;;;1.30;;
78887;SDS011;68276;49.326;8.690;2023-02-28T00:10:19;4.30;;;1.52;;
78887;SDS011;68276;49.326;8.690;2023-02-28T00:12:50;5.88;;;1.58;;
78887;SDS011;68276;49.326;8.690;2023-02-28T00:15:16;2.85;;;1.05;;
78887;SDS011;68276;49.326;8.690;2023-02-28T00:17:42;4.32;;;1.20;;
78887;SDS011;68276;49.326;8.690;2023-02-28T00:20:09;4.03;;;1.30;;
78887;SDS011;68276;49.326;8.690;2023-02-28T00:22:44;4.38;;;1.27;;
78887;SDS011;68276;49.326;8.690;2023-02-28T00:25:12;4.43;;;1.20;;
78887;SDS011;68276;49.326;8.690;2023-02-28T00:27:40;5.05;;;1.30;;
78887;SDS011;68276;49.326;8.690;2023-02-28T00:30:08;4.55;;;1.25;;
78887;SDS011;68276;49.326;8.690;2023-02-28T00:32:36;3.13;;;1.20;;
78887;SDS011;68276;49.326;8.690;2023-02-28T00:35:02;4.80;;;1.33;;
78887;SDS011;68276;49.326;8.690;2023-02-28T00:37:28;4.65;;;1.20;;
78887;SDS011;68276;49.326;8.690;2023-02-28T00:39:54;4.63;;;1.33;;
78887;SDS011;68276;49.326;8.690;2023-02-28T00:42:19;4.55;;;1.33;;
78887;SDS011;68276;49.326;8.690;2023-02-28T00:44:44;4.60;;;1.23;;
78887;SDS011;68276;49.326;8.690;2023-02-28T00:47:10;4.75;;;1.40;;
78887;SDS011;68276;49.326;8.690;2023-02-28T00:49:35;4.07;;;1.20;;
78887;SDS011;68276;49.326;8.690;2023-02-28T00:52:01;4.70;;;1.27;;
78887;SDS011;68276;49.326;8.690;2023-02-28T00:54:26;3.85;;;1.10;;
78887;SDS011;68276;49.326;8.690;2023-02-28T00:56:52;4.18;;;1.33;;
78887;SDS011;68276;49.326;8.690;2023-02-28T00:59:17;3.57;;;1.20;;
78887;SDS011;68276;49.326;8.690;2023-02-28T01:01:43;6.65;;;1.55;;
78887;SDS011;68276;49.326;8.690;2023-02-28T01:04:10;5.63;;;1.40;;
78887;SDS011;68276;49.326;8.690;2023-02-28T01:06:36;4.32;;;1.48;;
78887;SDS011;68276;49.326;8.690;2023-02-28T01:09:02;4.47;;;1.35;;
78887;SDS011;68276;49.326;8.690;2023-02-28T01:11:29;4.47;;;1.27;;
78887;SDS011;68276;49.326;8.690;2023-02-28T01:13:54;4.63;;;1.20;;
78887;SDS011;68276;49.326;8.690;2023-02-28T01:16:20;7.20;;;1.60;;
78887;SDS011;68276;49.326;8.690;2023-02-28T01:18:45;3.50;;;1.20;;
78887;SDS011;68276;49.326;8.690;2023-02-28T01:21:12;5.00;;;1.47;;
78887;SDS011;68276;49.326;8.690;2023-02-28T01:23:39;4.63;;;1.42;;
78887;SDS011;68276;49.326;8.690;2023-02-28T01:26:06;5.93;;;1.60;;
78887;SDS011;68276;49.326;8.690;2023-02-28T01:28:52;5.28;;;1.33;;
78887;SDS011;68276;49.326;8.690;2023-02-28T01:31:18;7.90;;;1.35;;
78887;SDS011;68276;49.326;8.690;2023-02-28T01:33:45;3.45;;;1.08;;
78887;SDS011;68276;49.326;8.690;2023-02-28T01:36:12;5.45;;;1.42;;
78887;SDS011;68276;49.326;8.690;2023-02-28T01:38:39;7.00;;;1.90;;
78887;SDS011;68276;49.326;8.690;2023-02-28T01:41:06;6.60;;;1.80;;
78887;SDS011;68276;49.326;8.690;2023-02-28T01:43:52;3.85;;;1.30;;
78887;SDS011;68276;49.326;8.690;2023-02-28T01:46:40;5.20;;;1.58;;
78887;SDS011;68276;49.326;8.690;2023-02-28T01:49:10;3.72;;;1.40;;
78887;SDS011;68276;49.326;8.690;2023-02-28T01:51:43;3.95;;;1.27;;
78887;SDS011;68276;49.326;8.690;2023-02-28T01:54:25;3.83;;;1.13;;
78887;SDS011;68276;49.326;8.690;2023-02-28T01:56:55;5.07;;;1.60;;
78887;SDS011;68276;49.326;8.690;2023-02-28T01:59:26;8.13;;;1.80;;
78887;SDS011;68276;49.326;8.690;2023-02-28T02:01:56;5.55;;;1.80;;
78887;SDS011;68276;49.326;8.690;2023-02-28T02:04:23;6.93;;;1.77;;
78887;SDS011;68276;49.326;8.690;2023-02-28T02:06:52;5.78;;;1.52;;
78887;SDS011;68276;49.326;8.690;2023-02-28T02:09:18;5.90;;;1.77;;
78887;SDS011;68276;49.326;8.690;2023-02-28T02:11:43;4.53;;;1.50;;
78887;SDS011;68276;49.326;8.690;2023-02-28T02:19:46;5.60;;;1.48;;
78887;SDS011;68276;49.326;8.690;2023-02-28T02:36:26;6.70;;;1.83;;
78887;SDS011;68276;49.326;8.690;2023-02-28T02:39:16;5.90;;;1.75;;
78887;SDS011;68276;49.326;8.690;2023-02-28T02:41:51;5.10;;;1.60;;
78887;SDS011;68276;49.326;8.690;2023-02-28T02:44:30;4.97;;;1.60;;
78887;SDS011;68276;49.326;8.690;2023-02-28T02:47:12;4.10;;;1.50;;
78887;SDS011;68276;49.326;8.690;2023-02-28T02:49:42;6.05;;;1.65;;
78887;SDS011;68276;49.326;8.690;2023-02-28T02:52:13;7.57;;;2.10;;
78887;SDS011;68276;49.326;8.690;2023-02-28T02:54:43;6.00;;;1.70;;
78887;SDS011;68276;49.326;8.690;2023-02-28T02:57:13;8.23;;;1.90;;
78887;SDS011;68276;49.326;8.690;2023-02-28T02:59:43;5.82;;;1.75;;
78887;SDS011;68276;49.326;8.690;2023-02-28T03:02:11;5.47;;;1.80;;
78887;SDS011;68276;49.326;8.690;2023-02-28T03:04:51;7.63;;;1.70;;
78887;SDS011;68276;49.326;8.690;2023-02-28T03:09:55;5.60;;;1.48;;
78887;SDS011;68276;49.326;8.690;2023-02-28T03:12:23;5.93;;;1.90;;
78887;SDS011;68276;49.326;8.690;2023-02-28T03:15:23;6.60;;;1.95;;
78887;SDS011;68276;49.326;8.690;2023-02-28T03:23:17;6.75;;;1.50;;
78887;SDS011;68276;49.326;8.690;2023-02-28T03:25:56;4.35;;;1.52;;
78887;SDS011;68276;49.326;8.690;2023-02-28T03:31:27;6.20;;;1.80;;
78887;SDS011;68276;49.326;8.690;2023-02-28T03:36:37;7.35;;;1.55;;
78887;SDS011;68276;49.326;8.690;2023-02-28T03:39:09;5.47;;;1.83;;
78887;SDS011;68276;49.326;8.690;2023-02-28T03:41:49;5.38;;;1.67;;
78887;SDS011;68276;49.326;8.690;2023-02-28T03:44:24;6.35;;;1.90;;
78887;SDS011;68276;49.326;8.690;2023-02-28T03:47:17;5.20;;;1.60;;
78887;SDS011;68276;49.326;8.690;2023-02-28T03:50:00;6.30;;;1.70;;
78887;SDS011;68276;49.326;8.690;2023-02-28T03:52:32;6.78;;;2.00;;
78887;SDS011;68276;49.326;8.690;2023-02-28T03:55:05;5.30;;;1.63;;
78887;SDS011;68276;49.326;8.690;2023-02-28T04:00:25;7.95;;;2.33;;
78887;SDS011;68276;49.326;8.690;2023-02-28T04:03:03;6.32;;;2.20;;
78887;SDS011;68276;49.326;8.690;2023-02-28T04:05:29;7.88;;;2.13;;
78887;SDS011;68276;49.326;8.690;2023-02-28T04:08:02;8.63;;;2.20;;
78887;SDS011;68276;49.326;8.690;2023-02-28T04:10:29;6.63;;;1.85;;
78887;SDS011;68276;49.326;8.690;2023-02-28T04:12:54;7.47;;;2.00;;
78887;SDS011;68276;49.326;8.690;2023-02-28T04:15:20;6.20;;;1.73;;
78887;SDS011;68276;49.326;8.690;2023-02-28T04:17:47;6.97;;;1.98;;
78887;SDS011;68276;49.326;8.690;2023-02-28T04:20:13;6.50;;;2.00;;
78887;SDS011;68276;49.326;8.690;2023-02-28T04:22:38;7.60;;;2.13;;
78887;SDS011;68276;49.326;8.690;2023-02-28T04:25:04;5.93;;;2.07;;
78887;SDS011;68276;49.326;8.690;2023-02-28T04:27:30;7.05;;;2.10;;
78887;SDS011;68276;49.326;8.690;2023-02-28T04:29:56;9.67;;;2.00;;
78887;SDS011;68276;49.326;8.690;2023-02-28T04:32:21;6.20;;;1.87;;
78887;SDS011;68276;49.326;8.690;2023-02-28T04:34:46;7.17;;;2.33;;
78887;SDS011;68276;49.326;8.690;2023-02-28T04:37:12;6.10;;;1.90;;
78887;SDS011;68276;49.326;8.690;2023-02-28T04:39:37;7.40;;;1.87;;
78887;SDS011;68276;49.326;8.690;2023-02-28T04:42:03;6.32;;;2.20;;
78887;SDS011;68276;49.326;8.690;2023-02-28T04:44:29;6.03;;;1.92;;
78887;SDS011;68276;49.326;8.690;2023-02-28T04:46:54;6.33;;;2.30;;
78887;SDS011;68276;49.326;8.690;2023-02-28T04:49:19;8.97;;;2.17;;
78887;SDS011;68276;49.326;8.690;2023-02-28T04:51:45;6.33;;;2.13;;
78887;SDS011;68276;49.326;8.690;2023-02-28T04:54:10;6.30;;;2.15;;
78887;SDS011;68276;49.326;8.690;2023-02-28T04:56:35;6.80;;;2.08;;
78887;SDS011;68276;49.326;8.690;2023-02-28T04:59:01;6.67;;;1.90;;
78887;SDS011;68276;49.326;8.690;2023-02-28T05:01:30;7.13;;;2.07;;
78887;SDS011;68276;49.326;8.690;2023-02-28T05:03:58;7.05;;;2.38;;
78887;SDS011;68276;49.326;8.690;2023-02-28T05:06:26;6.38;;;2.00;;
78887;SDS011;68276;49.326;8.690;2023-02-28T05:08:55;6.00;;;2.05;;
78887;SDS011;68276;49.326;8.690;2023-02-28T05:11:25;5.63;;;1.88;;
78887;SDS011;68276;49.326;8.690;2023-02-28T05:13:54;6.35;;;1.83;;
78887;SDS011;68276;49.326;8.690;2023-02-28T05:16:20;9.23;;;2.25;;
78887;SDS011;68276;49.326;8.690;2023-02-28T05:18:45;6.57;;;2.20;;
78887;SDS011;68276;49.326;8.690;2023-02-28T05:21:28;7.78;;;2.25;;
78887;SDS011;68276;49.326;8.690;2023-02-28T05:23:56;6.25;;;2.28;;
78887;SDS011;68276;49.326;8.690;2023-02-28T05:26:23;6.95;;;2.17;;
78887;SDS011;68276;49.326;8.690;2023-02-28T05:28:49;7.57;;;2.33;;
78887;SDS011;68276;49.326;8.690;2023-02-28T05:31:15;7.38;;;2.22;;
78887;SDS011;68276;49.326;8.690;2023-02-28T05:33:41;6.88;;;1.95;;
78887;SDS011;68276;49.326;8.690;2023-02-28T05:36:06;8.00;;;2.40;;
78887;SDS011;68276;49.326;8.690;2023-02-28T05:38:32;6.72;;;2.13;;
78887;SDS011;68276;49.326;8.690;2023-02-28T05:40:57;7.53;;;2.40;;
78887;SDS011;68276;49.326;8.690;2023-02-28T05:43:23;8.27;;;2.30;;
78887;SDS011;68276;49.326;8.690;2023-02-28T05:45:49;8.20;;;2.25;;
78887;SDS011;68276;49.326;8.690;2023-02-28T05:48:14;6.72;;;2.00;;
78887;SDS011;68276;49.326;8.690;2023-02-28T05:50:40;7.20;;;2.10;;
78887;SDS011;68276;49.326;8.690;2023-02-28T05:53:07;6.55;;;2.20;;
78887;SDS011;68276;49.326;8.690;2023-02-28T05:55:33;7.25;;;2.00;;
78887;SDS011;68276;49.326;8.690;2023-02-28T05:57:58;6.40;;;2.23;;
78887;SDS011;68276;49.326;8.690;2023-02-28T06:00:23;7.57;;;2.13;;
78887;SDS011;68276;49.326;8.690;2023-02-28T06:02:49;9.33;;;2.27;;
78887;SDS011;68276;49.326;8.690;2023-02-28T06:05:15;6.13;;;2.07;;
78887;SDS011;68276;49.326;8.690;2023-02-28T06:07:42;5.90;;;1.92;;
78887;SDS011;68276;49.326;8.690;2023-02-28T06:10:08;7.32;;;2.00;;
78887;SDS011;68276;49.326;8.690;2023-02-28T06:12:35;8.05;;;2.40;;
78887;SDS011;68276;49.326;8.690;2023-02-28T06:15:01;6.50;;;1.95;;
78887;SDS011;68276;49.326;8.690;2023-02-28T06:17:30;6.95;;;2.10;;
78887;SDS011;68276;49.326;8.690;2023-02-28T06:19:55;6.97;;;2.20;;
78887;SDS011;68276;49.326;8.690;2023-02-28T06:22:21;7.83;;;2.37;;
78887;SDS011;68276;49.326;8.690;2023-02-28T06:24:46;8.20;;;2.50;;
78887;SDS011;68276;49.326;8.690;2023-02-28T06:27:12;6.88;;;2.15;;
78887;SDS011;68276;49.326;8.690;2023-02-28T06:29:37;6.27;;;2.07;;
78887;SDS011;68276;49.326;8.690;2023-02-28T06:32:04;6.88;;;2.03;;
78887;SDS011;68276;49.326;8.690;2023-02-28T06:34:31;6.80;;;2.20;;
78887;SDS011;68276;49.326;8.690;2023-02-28T06:36:56;11.38;;;2.88;;
78887;SDS011;68276;49.326;8.690;2023-02-28T06:39:22;8.40;;;2.50;;
78887;SDS011;68276;49.326;8.690;2023-02-28T06:41:47;7.03;;;2.30;;
78887;SDS011;68276;49.326;8.690;2023-02-28T06:44:13;8.88;;;2.45;;
78887;SDS011;68276;49.326;8.690;2023-02-28T06:46:41;6.22;;;2.05;;
78887;SDS011;68276;49.326;8.690;2023-02-28T06:49:07;8.45;;;2.40;;
78887;SDS011;68276;49.326;8.690;2023-02-28T06:51:37;7.03;;;2.22;;
78887;SDS011;68276;49.326;8.690;2023-02-28T06:54:03;5.85;;;2.05;;
78887;SDS011;68276;49.326;8.690;2023-02-28T06:56:33;6.45;;;1.98;;
78887;SDS011;68276;49.326;8.690;2023-02-28T06:58:59;6.07;;;1.95;;
78887;SDS011;68276;49.326;8.690;2023-02-28T07:01:25;7.43;;;2.28;;
78887;SDS011;68276;49.326;8.690;2023-02-28T07:03:52;6.63;;;2.33;;
78887;SDS011;68276;49.326;8.690;2023-02-28T07:06:19;10.38;;;2.85;;
78887;SDS011;68276;49.326;8.690;2023-02-28T07:08:47;6.65;;;2.17;;
78887;SDS011;68276;49.326;8.690;2023-02-28T07:11:13;7.13;;;2.20;;
78887;SDS011;68276;49.326;8.690;2023-02-28T07:13:38;9.13;;;2.60;;
78887;SDS011;68276;49.326;8.690;2023-02-28T07:16:05;6.73;;;2.07;;
78887;SDS011;68276;49.326;8.690;2023-02-28T07:18:32;10.13;;;2.40;;
78887;SDS011;68276;49.326;8.690;2023-02-28T07:21:01;8.45;;;2.50;;
78887;SDS011;68276;49.326;8.690;2023-02-28T07:23:27;6.57;;;2.25;;
78887;SDS011;68276;49.326;8.690;2023-02-28T07:25:52;7.53;;;2.50;;
78887;SDS011;68276;49.326;8.690;2023-02-28T07:28:20;9.85;;;2.65;;
78887;SDS011;68276;49.326;8.690;2023-02-28T07:30:46;7.40;;;2.60;;
78887;SDS011;68276;49.326;8.690;2023-02-28T07:33:11;7.70;;;2.40;;
78887;SDS011;68276;49.326;8.690;2023-02-28T07:35:36;7.73;;;2.57;;
78887;SDS011;68276;49.326;8.690;2023-02-28T07:38:02;8.23;;;2.77;;
78887;SDS011;68276;49.326;8.690;2023-02-28T07:40:28;5.78;;;2.10;;
78887;SDS011;68276;49.326;8.690;2023-02-28T07:42:55;7.40;;;2.55;;
78887;SDS011;68276;49.326;8.690;2023-02-28T07:45:21;9.77;;;2.60;;
78887;SDS011;68276;49.326;8.690;2023-02-28T07:47:46;9.10;;;2.40;;
78887;SDS011;68276;49.326;8.690;2023-02-28T07:50:13;8.80;;;2.92;;
78887;SDS011;68276;49.326;8.690;2023-02-28T07:52:40;6.70;;;2.60;;
78887;SDS011;68276;49.326;8.690;2023-02-28T07:55:08;7.43;;;2.17;;
78887;SDS011;68276;49.326;8.690;2023-02-28T07:57:34;9.50;;;3.33;;
78887;SDS011;68276;49.326;8.690;2023-02-28T08:00:00;10.95;;;2.80;;
78887;SDS011;68276;49.326;8.690;2023-02-28T08:02:26;9.10;;;2.83;;
78887;SDS011;68276;49.326;8.690;2023-02-28T08:04:51;10.63;;;2.90;;
78887;SDS011;68276;49.326;8.690;2023-02-28T08:07:17;9.38;;;3.00;;
78887;SDS011;68276;49.326;8.690;2023-02-28T08:09:43;9.27;;;2.53;;
78887;SDS011;68276;49.326;8.690;2023-02-28T08:12:10;6.82;;;2.45;;
78887;SDS011;68276;49.326;8.690;2023-02-28T08:14:35;9.63;;;3.30;;
78887;SDS011;68276;49.326;8.690;2023-02-28T08:17:02;9.60;;;3.33;;
78887;SDS011;68276;49.326;8.690;2023-02-28T08:19:28;7.88;;;2.75;;
78887;SDS011;68276;49.326;8.690;2023-02-28T08:21:54;8.05;;;2.90;;
78887;SDS011;68276;49.326;8.690;2023-02-28T08:24:21;8.48;;;2.72;;
78887;SDS011;68276;49.326;8.690;2023-02-28T08:26:47;8.95;;;2.70;;
78887;SDS011;68276;49.326;8.690;2023-02-28T08:29:12;8.55;;;2.83;;
78887;SDS011;68276;49.326;8.690;2023-02-28T08:31:38;9.30;;;2.93;;
78887;SDS011;68276;49.326;8.690;2023-02-28T08:34:07;8.80;;;2.78;;
78887;SDS011;68276;49.326;8.690;2023-02-28T08:36:37;9.20;;;2.80;;
78887;SDS011;68276;49.326;8.690;2023-02-28T08:39:06;10.68;;;3.22;;
78887;SDS011;68276;49.326;8.690;2023-02-28T08:41:32;10.88;;;3.72;;
78887;SDS011;68276;49.326;8.690;2023-02-28T08:43:58;8.40;;;3.13;;
78887;SDS011;68276;49.326;8.690;2023-02-28T08:46:24;7.25;;;2.65;;
78887;SDS011;68276;49.326;8.690;2023-02-28T08:48:53;9.05;;;3.00;;
78887;SDS011;68276;49.326;8.690;2023-02-28T08:51:20;9.45;;;2.45;;
78887;SDS011;68276;49.326;8.690;2023-02-28T08:53:51;7.10;;;2.33;;
78887;SDS011;68276;49.326;8.690;2023-02-28T08:56:17;9.10;;;2.97;;
78887;SDS011;68276;49.326;8.690;2023-02-28T08:58:43;8.65;;;3.15;;
78887;SDS011;68276;49.326;8.690;2023-02-28T09:01:21;8.00;;;2.78;;
78887;SDS011;68276;49.326;8.690;2023-02-28T09:03:49;8.82;;;2.65;;
78887;SDS011;68276;49.326;8.690;2023-02-28T09:06:16;10.45;;;3.00;;
78887;SDS011;68276;49.326;8.690;2023-02-28T09:08:43;8.32;;;2.90;;
78887;SDS011;68276;49.326;8.690;2023-02-28T09:11:09;8.55;;;3.22;;
78887;SDS011;68276;49.326;8.690;2023-02-28T09:13:35;8.68;;;3.22;;
78887;SDS011;68276;49.326;8.690;2023-02-28T09:16:02;6.68;;;2.45;;
78887;SDS011;68276;49.326;8.690;2023-02-28T09:18:29;8.40;;;2.78;;
78887;SDS011;68276;49.326;8.690;2023-02-28T09:20:55;8.30;;;2.88;;
78887;SDS011;68276;49.326;8.690;2023-02-28T09:23:20;7.97;;;2.83;;
78887;SDS011;68276;49.326;8.690;2023-02-28T09:25:51;8.02;;;2.90;;
78887;SDS011;68276;49.326;8.690;2023-02-28T09:28:18;8.52;;;3.22;;
78887;SDS011;68276;49.326;8.690;2023-02-28T09:30:45;8.55;;;3.03;;
78887;SDS011;68276;49.326;8.690;2023-02-28T09:33:12;10.77;;;3.60;;
78887;SDS011;68276;49.326;8.690;2023-02-28T09:35:38;8.25;;;3.03;;
78887;SDS011;68276;49.326;8.690;2023-02-28T09:38:04;8.68;;;2.92;;
78887;SDS011;68276;49.326;8.690;2023-02-28T09:40:29;8.52;;;2.90;;
78887;SDS011;68276;49.326;8.690;2023-02-28T09:42:56;12.07;;;3.13;;
78887;SDS011;68276;49.326;8.690;2023-02-28T09:47:54;11.27;;;3.53;;
78887;SDS011;68276;49.326;8.690;2023-02-28T09:50:39;7.75;;;2.67;;
78887;SDS011;68276;49.326;8.690;2023-02-28T09:53:13;9.25;;;3.30;;
78887;SDS011;68276;49.326;8.690;2023-02-28T09:55:51;10.15;;;3.22;;
78887;SDS011;68276;49.326;8.690;2023-02-28T09:58:26;8.35;;;2.80;;
78887;SDS011;68276;49.326;8.690;2023-02-28T10:01:29;8.88;;;3.13;;
78887;SDS011;68276;49.326;8.690;2023-02-28T10:04:02;9.30;;;3.75;;
78887;SDS011;68276;49.326;8.690;2023-02-28T10:06:35;10.48;;;4.10;;
78887;SDS011;68276;49.326;8.690;2023-02-28T10:09:40;8.50;;;3.15;;
78887;SDS011;68276;49.326;8.690;2023-02-28T10:12:03;10.20;;;3.63;;
78887;SDS011;68276;49.326;8.690;2023-02-28T10:14:32;8.27;;;2.78;;
78887;SDS011;68276;49.326;8.690;2023-02-28T10:17:01;8.80;;;3.08;;
78887;SDS011;68276;49.326;8.690;2023-02-28T10:20:10;9.40;;;3.28;;
78887;SDS011;68276;49.326;8.690;2023-02-28T10:25:27;9.52;;;2.97;;
78887;SDS011;68276;49.326;8.690;2023-02-28T10:27:54;11.05;;;3.40;;
78887;SDS011;68276;49.326;8.690;2023-02-28T10:30:25;7.30;;;2.63;;
78887;SDS011;68276;49.326;8.690;2023-02-28T10:32:51;9.25;;;3.17;;
78887;SDS011;68276;49.326;8.690;2023-02-28T10:35:20;9.75;;;3.15;;
78887;SDS011;68276;49.326;8.690;2023-02-28T10:37:57;7.95;;;2.67;;
78887;SDS011;68276;49.326;8.690;2023-02-28T10:42:57;8.68;;;3.05;;
78887;SDS011;68276;49.326;8.690;2023-02-28T10:45:28;9.13;;;3.30;;
78887;SDS011;68276;49.326;8.690;2023-02-28T10:50:51;9.43;;;2.97;;
78887;SDS011;68276;49.326;8.690;2023-02-28T10:56:01;9.52;;;3.40;;
78887;SDS011;68276;49.326;8.690;2023-02-28T10:58:44;8.15;;;3.33;;
78887;SDS011;68276;49.326;8.690;2023-02-28T11:03:45;7.80;;;2.83;;
78887;SDS011;68276;49.326;8.690;2023-02-28T11:06:25;8.63;;;3.15;;
78887;SDS011;68276;49.326;8.690;2023-02-28T11:09:02;9.45;;;3.35;;
78887;SDS011;68276;49.326;8.690;2023-02-28T11:11:40;10.45;;;3.53;;
78887;SDS011;68276;49.326;8.690;2023-02-28T11:14:16;8.38;;;3.30;;
78887;SDS011;68276;49.326;8.690;2023-02-28T11:16:46;9.00;;;3.55;;
78887;SDS011;68276;49.326;8.690;2023-02-28T11:19:22;11.32;;;3.75;;
78887;SDS011;68276;49.326;8.690;2023-02-28T11:21:56;10.48;;;4.28;;
78887;SDS011;68276;49.326;8.690;2023-02-28T11:24:29;11.07;;;3.70;;
78887;SDS011;68276;49.326;8.690;2023-02-28T11:26:58;10.77;;;4.00;;
78887;SDS011;68276;49.326;8.690;2023-02-28T11:29:25;11.65;;;3.83;;
78887;SDS011;68276;49.326;8.690;2023-02-28T11:34:38;8.65;;;3.22;;
78887;SDS011;68276;49.326;8.690;2023-02-28T11:37:08;9.45;;;3.97;;
78887;SDS011;68276;49.326;8.690;2023-02-28T11:39:36;8.20;;;3.60;;
78887;SDS011;68276;49.326;8.690;2023-02-28T11:47:30;11.50;;;4.20;;
78887;SDS011;68276;49.326;8.690;2023-02-28T11:56:06;9.15;;;3.80;;
78887;SDS011;68276;49.326;8.690;2023-02-28T12:01:38;9.90;;;3.88;;
78887;SDS011;68276;49.326;8.690;2023-02-28T12:09:43;9.60;;;3.50;;
78887;SDS011;68276;49.326;8.690;2023-02-28T12:15:17;10.98;;;3.55;;
78887;SDS011;68276;49.326;8.690;2023-02-28T12:20:45;10.93;;;4.00;;
78887;SDS011;68276;49.326;8.690;2023-02-28T12:29:28;12.23;;;5.40;;
78887;SDS011;68276;49.326;8.690;2023-02-28T12:32:04;9.15;;;3.55;;
78887;SDS011;68276;49.326;8.690;2023-02-28T12:34:38;11.93;;;4.10;;
78887;SDS011;68276;49.326;8.690;2023-02-28T12:37:10;9.10;;;3.70;;
78887;SDS011;68276;49.326;8.690;2023-02-28T12:39:45;9.90;;;3.80;;
78887;SDS011;68276;49.326;8.690;2023-02-28T12:42:21;11.77;;;4.47;;
78887;SDS011;68276;49.326;8.690;2023-02-28T12:44:54;11.65;;;4.22;;
78887;SDS011;68276;49.326;8.690;2023-02-28T12:47:24;11.07;;;3.83;;
78887;SDS011;68276;49.326;8.690;2023-02-28T12:49:51;10.10;;;4.32;;
78887;SDS011;68276;49.326;8.690;2023-02-28T12:55:11;13.13;;;4.22;;
78887;SDS011;68276;49.326;8.690;2023-02-28T13:01:13;10.10;;;3.83;;
78887;SDS011;68276;49.326;8.690;2023-02-28T13:09:53;10.68;;;4.15;;
78887;SDS011;68276;49.326;8.690;2023-02-28T13:12:21;7.95;;;3.50;;
78887;SDS011;68276;49.326;8.690;2023-02-28T13:14:48;10.20;;;4.57;;
78887;SDS011;68276;49.326;8.690;2023-02-28T13:17:21;10.15;;;4.10;;
78887;SDS011;68276;49.326;8.690;2023-02-28T13:24:51;11.90;;;5.03;;
78887;SDS011;68276;49.326;8.690;2023-02-28T13:27:22;10.48;;;4.18;;
78887;SDS011;68276;49.326;8.690;2023-02-28T13:29:49;11.45;;;4.38;;
78887;SDS011;68276;49.326;8.690;2023-02-28T13:42:33;10.10;;;4.40;;
78887;SDS011;68276;49.326;8.690;2023-02-28T13:47:35;10.10;;;4.10;;
78887;SDS011;68276;49.326;8.690;2023-02-28T14:08:59;8.95;;;3.83;;
78887;SDS011;68276;49.326;8.690;2023-02-28T14:13:56;10.85;;;4.45;;
78887;SDS011;68276;49.326;8.690;2023-02-28T14:16:23;8.82;;;4.25;;
78887;SDS011;68276;49.326;8.690;2023-02-28T14:19:01;12.32;;;4.28;;
78887;SDS011;68276;49.326;8.690;2023-02-28T14:21:35;9.75;;;4.10;;
78887;SDS011;68276;49.326;8.690;2023-02-28T14:35:39;11.27;;;4.38;;
78887;SDS011;68276;49.326;8.690;2023-02-28T14:38:13;11.15;;;4.40;;
78887;SDS011;68276;49.326;8.690;2023-02-28T14:40:43;9.65;;;4.25;;
78887;SDS011;68276;49.326;8.690;2023-02-28T14:43:22;8.68;;;3.80;;
78887;SDS011;68276;49.326;8.690;2023-02-28T14:46:00;11.68;;;4.28;;
78887;SDS011;68276;49.326;8.690;2023-02-28T14:48:29;9.40;;;4.32;;
78887;SDS011;68276;49.326;8.690;2023-02-28T14:50:58;11.32;;;4.50;;
78887;SDS011;68276;49.326;8.690;2023-02-28T14:53:28;10.27;;;4.38;;
78887;SDS011;68276;49.326;8.690;2023-02-28T14:55:55;8.35;;;3.90;;
78887;SDS011;68276;49.326;8.690;2023-02-28T14:58:22;9.70;;;4.13;;
78887;SDS011;68276;49.326;8.690;2023-02-28T15:00:54;9.98;;;3.55;;
78887;SDS011;68276;49.326;8.690;2023-02-28T15:03:32;11.05;;;4.32;;
78887;SDS011;68276;49.326;8.690;2023-02-28T15:06:04;10.60;;;4.03;;
78887;SDS011;68276;49.326;8.690;2023-02-28T15:08:31;10.68;;;4.40;;
78887;SDS011;68276;49.326;8.690;2023-02-28T15:11:04;10.48;;;4.43;;
78887;SDS011;68276;49.326;8.690;2023-02-28T15:13:36;9.77;;;4.10;;
78887;SDS011;68276;49.326;8.690;2023-02-28T15:16:17;9.85;;;4.38;;
78887;SDS011;68276;49.326;8.690;2023-02-28T15:18:55;11.80;;;4.38;;
78887;SDS011;68276;49.326;8.690;2023-02-28T15:21:49;8.93;;;3.95;;
78887;SDS011;68276;49.326;8.690;2023-02-28T15:24:39;8.88;;;3.88;;
78887;SDS011;68276;49.326;8.690;2023-02-28T15:27:12;11.43;;;4.60;;
78887;SDS011;68276;49.326;8.690;2023-02-28T15:29:47;12.25;;;4.50;;
78887;SDS011;68276;49.326;8.690;2023-02-28T15:32:37;10.55;;;4.43;;
78887;SDS011;68276;49.326;8.690;2023-02-28T15:35:18;10.73;;;4.57;;
78887;SDS011;68276;49.326;8.690;2023-02-28T15:40:56;12.85;;;5.40;;
78887;SDS011;68276;49.326;8.690;2023-02-28T15:43:32;12.00;;;4.72;;
78887;SDS011;68276;49.326;8.690;2023-02-28T15:46:12;11.48;;;4.32;;
78887;SDS011;68276;49.326;8.690;2023-02-28T15:48:44;9.55;;;3.90;;
78887;SDS011;68276;49.326;8.690;2023-02-28T15:51:25;10.63;;;4.05;;
78887;SDS011;68276;49.326;8.690;2023-02-28T15:54:18;10.75;;;4.50;;
78887;SDS011;68276;49.326;8.690;2023-02-28T15:56:50;14.23;;;4.47;;
78887;SDS011;68276;49.326;8.690;2023-02-28T15:59:26;11.77;;;4.32;;
78887;SDS011;68276;49.326;8.690;2023-02-28T16:07:44;15.85;;;5.63;;
78887;SDS011;68276;49.326;8.690;2023-02-28T16:10:12;11.10;;;5.20;;
78887;SDS011;68276;49.326;8.690;2023-02-28T16:12:39;10.02;;;3.78;;
78887;SDS011;68276;49.326;8.690;2023-02-28T16:15:14;10.32;;;3.88;;
78887;SDS011;68276;49.326;8.690;2023-02-28T16:17:51;11.48;;;4.10;;
78887;SDS011;68276;49.326;8.690;2023-02-28T16:20:21;12.20;;;4.22;;
78887;SDS011;68276;49.326;8.690;2023-02-28T16:22:49;10.93;;;4.22;;
78887;SDS011;68276;49.326;8.690;2023-02-28T16:25:14;9.20;;;3.53;;
78887;SDS011;68276;49.326;8.690;2023-02-28T16:27:42;10.52;;;4.50;;
78887;SDS011;68276;49.326;8.690;2023-02-28T16:30:15;12.48;;;5.10;;
78887;SDS011;68276;49.326;8.690;2023-02-28T16:32:47;11.23;;;4.10;;
78887;SDS011;68276;49.326;8.690;2023-02-28T16:35:13;11.80;;;5.15;;
78887;SDS011;68276;49.326;8.690;2023-02-28T16:37:40;11.43;;;4.35;;
78887;SDS011;68276;49.326;8.690;2023-02-28T16:40:06;11.38;;;4.40;;
78887;SDS011;68276;49.326;8.690;2023-02-28T16:42:40;11.65;;;4.47;;
78887;SDS011;68276;49.326;8.690;2023-02-28T16:45:06;10.77;;;4.28;;
78887;SDS011;68276;49.326;8.690;2023-02-28T16:47:36;9.45;;;3.95;;
78887;SDS011;68276;49.326;8.690;2023-02-28T16:50:04;11.53;;;4.13;;
78887;SDS011;68276;49.326;8.690;2023-02-28T16:52:37;10.70;;;3.90;;
78887;SDS011;68276;49.326;8.690;2023-02-28T16:55:03;11.30;;;4.43;;
78887;SDS011;68276;49.326;8.690;2023-02-28T16:57:28;10.98;;;4.10;;
78887;SDS011;68276;49.326;8.690;2023-02-28T16:59:54;10.73;;;4.03;;
78887;SDS011;68276;49.326;8.690;2023-02-28T17:02:20;9.27;;;3.97;;
78887;SDS011;68276;49.326;8.690;2023-02-28T17:04:46;13.07;;;5.22;;
78887;SDS011;68276;49.326;8.690;2023-02-28T17:07:13;10.95;;;3.92;;
78887;SDS011;68276;49.326;8.690;2023-02-28T17:09:41;9.95;;;4.22;;
78887;SDS011;68276;49.326;8.690;2023-02-28T17:12:08;14.63;;;6.15;;
78887;SDS011;68276;49.326;8.690;2023-02-28T17:14:34;13.02;;;4.57;;
78887;SDS011;68276;49.326;8.690;2023-02-28T17:17:09;14.27;;;5.85;;
78887;SDS011;68276;49.326;8.690;2023-02-28T17:19:51;17.75;;;5.82;;
78887;SDS011;68276;49.326;8.690;2023-02-28T17:22:20;15.00;;;6.47;;
78887;SDS011;68276;49.326;8.690;2023-02-28T17:24:47;14.88;;;6.38;;
78887;SDS011;68276;49.326;8.690;2023-02-28T17:27:12;14.00;;;4.72;;
78887;SDS011;68276;49.326;8.690;2023-02-28T17:29:38;14.13;;;5.85;;
78887;SDS011;68276;49.326;8.690;2023-02-28T17:32:03;19.05;;;8.57;;
78887;SDS011;68276;49.326;8.690;2023-02-28T17:34:29;16.48;;;6.75;;
78887;SDS011;68276;49.326;8.690;2023-02-28T17:36:54;14.63;;;6.23;;